sensor_id;sensor_type;location;lat;lon;timestamp;temperature;humidity
3602;DHT22;1815;50.950;6.920;2022-08-21T00:01:25;20.10;99.90
3602;DHT22;1815;50.950;6.920;2022-08-21T00:03:52;20.10;99.90
3602;DHT22;1815;50.950;6.920;2022-08-21T00:06:18;20.00;99.90
3602;DHT22;1815;50.950;6.920;2022-08-21T00:08:44;20.00;99.90
3602;DHT22;1815;50.950;6.920;2022-08-21T00:11:10;20.00;99.90
3602;DHT22;1815;50.950;6.920;2022-08-21T00:13:37;19.90;99.90
3602;DHT22;1815;50.950;6.920;2022-08-21T00:16:03;19.90;99.90
3602;DHT22;1815;50.950;6.920;2022-08-21T00:18:29;19.90;99.90
3602;DHT22;1815;50.950;6.920;2022-08-21T00:20:55;19.80;99.90
3602;DHT22;1815;50.950;6.920;2022-08-21T00:23:22;19.80;99.90
3602;DHT22;1815;50.950;6.920;2022-08-21T00:25:48;19.80;99.90
3602;DHT22;1815;50.950;6.920;2022-08-21T00:28:14;19.80;99.90
3602;DHT22;1815;50.950;6.920;2022-08-21T00:30:41;19.80;99.90
3602;DHT22;1815;50.950;6.920;2022-08-21T00:33:08;19.80;99.90
3602;DHT22;1815;50.950;6.920;2022-08-21T00:35:37;19.70;99.90
3602;DHT22;1815;50.950;6.920;2022-08-21T00:38:04;19.70;99.90
3602;DHT22;1815;50.950;6.920;2022-08-21T00:40:35;19.70;99.90
3602;DHT22;1815;50.950;6.920;2022-08-21T00:43:04;19.70;99.90
3602;DHT22;1815;50.950;6.920;2022-08-21T00:45:31;19.60;99.90
3602;DHT22;1815;50.950;6.920;2022-08-21T00:47:57;19.60;99.90
3602;DHT22;1815;50.950;6.920;2022-08-21T00:50:26;19.60;99.90
3602;DHT22;1815;50.950;6.920;2022-08-21T00:52:55;19.60;99.90
3602;DHT22;1815;50.950;6.920;2022-08-21T00:55:22;19.60;99.90
3602;DHT22;1815;50.950;6.920;2022-08-21T00:57:52;19.60;99.90
3602;DHT22;1815;50.950;6.920;2022-08-21T01:00:23;19.60;99.90
3602;DHT22;1815;50.950;6.920;2022-08-21T01:02:50;19.50;99.90
3602;DHT22;1815;50.950;6.920;2022-08-21T01:05:16;19.50;99.90
3602;DHT22;1815;50.950;6.920;2022-08-21T01:07:43;19.50;99.90
3602;DHT22;1815;50.950;6.920;2022-08-21T01:10:10;19.50;99.90
3602;DHT22;1815;50.950;6.920;2022-08-21T01:12:38;19.50;99.90
3602;DHT22;1815;50.950;6.920;2022-08-21T01:15:07;19.50;99.90
3602;DHT22;1815;50.950;6.920;2022-08-21T01:17:33;19.50;99.90
3602;DHT22;1815;50.950;6.920;2022-08-21T01:20:03;19.40;99.90
3602;DHT22;1815;50.950;6.920;2022-08-21T01:22:30;19.40;99.90
3602;DHT22;1815;50.950;6.920;2022-08-21T01:24:56;19.40;99.90
3602;DHT22;1815;50.950;6.920;2022-08-21T01:27:21;19.30;99.90
3602;DHT22;1815;50.950;6.920;2022-08-21T01:29:57;19.30;99.90
3602;DHT22;1815;50.950;6.920;2022-08-21T01:32:24;19.30;99.90
3602;DHT22;1815;50.950;6.920;2022-08-21T01:34:51;19.40;99.90
3602;DHT22;1815;50.950;6.920;2022-08-21T01:37:18;19.30;99.90
3602;DHT22;1815;50.950;6.920;2022-08-21T01:39:45;19.30;99.90
3602;DHT22;1815;50.950;6.920;2022-08-21T01:42:12;19.30;99.90
3602;DHT22;1815;50.950;6.920;2022-08-21T01:44:37;19.20;99.90
3602;DHT22;1815;50.950;6.920;2022-08-21T01:47:06;19.20;99.90
3602;DHT22;1815;50.950;6.920;2022-08-21T01:49:33;19.20;99.90
3602;DHT22;1815;50.950;6.920;2022-08-21T01:51:59;19.20;99.90
3602;DHT22;1815;50.950;6.920;2022-08-21T01:54:26;19.10;99.90
3602;DHT22;1815;50.950;6.920;2022-08-21T01:56:53;19.10;99.90
3602;DHT22;1815;50.950;6.920;2022-08-21T01:59:21;19.10;99.90
3602;DHT22;1815;50.950;6.920;2022-08-21T02:01:47;19.10;99.90
3602;DHT22;1815;50.950;6.920;2022-08-21T02:04:14;19.10;99.90
3602;DHT22;1815;50.950;6.920;2022-08-21T02:06:41;19.00;99.90
3602;DHT22;1815;50.950;6.920;2022-08-21T02:09:08;19.00;99.90
3602;DHT22;1815;50.950;6.920;2022-08-21T02:11:36;19.00;99.90
3602;DHT22;1815;50.950;6.920;2022-08-21T02:14:02;18.90;99.90
3602;DHT22;1815;50.950;6.920;2022-08-21T02:16:28;18.90;99.90
3602;DHT22;1815;50.950;6.920;2022-08-21T02:18:54;18.90;99.90
3602;DHT22;1815;50.950;6.920;2022-08-21T02:21:19;18.90;99.90
3602;DHT22;1815;50.950;6.920;2022-08-21T02:23:45;18.80;99.90
3602;DHT22;1815;50.950;6.920;2022-08-21T02:26:12;18.80;99.90
3602;DHT22;1815;50.950;6.920;2022-08-21T02:28:38;18.80;99.90
3602;DHT22;1815;50.950;6.920;2022-08-21T02:31:05;18.80;99.90
3602;DHT22;1815;50.950;6.920;2022-08-21T02:33:31;18.70;99.90
3602;DHT22;1815;50.950;6.920;2022-08-21T02:35:58;18.70;99.90
3602;DHT22;1815;50.950;6.920;2022-08-21T02:38:28;18.70;99.90
3602;DHT22;1815;50.950;6.920;2022-08-21T02:40:56;18.70;99.90
3602;DHT22;1815;50.950;6.920;2022-08-21T02:43:23;18.60;99.90
3602;DHT22;1815;50.950;6.920;2022-08-21T02:45:50;18.60;99.90
3602;DHT22;1815;50.950;6.920;2022-08-21T02:48:19;18.60;99.90
3602;DHT22;1815;50.950;6.920;2022-08-21T02:51:07;18.60;99.90
3602;DHT22;1815;50.950;6.920;2022-08-21T02:53:34;18.60;99.90
3602;DHT22;1815;50.950;6.920;2022-08-21T02:56:03;18.60;99.90
3602;DHT22;1815;50.950;6.920;2022-08-21T02:58:33;18.60;99.90
3602;DHT22;1815;50.950;6.920;2022-08-21T03:01:00;18.60;99.90
3602;DHT22;1815;50.950;6.920;2022-08-21T03:03:27;18.60;99.90
3602;DHT22;1815;50.950;6.920;2022-08-21T03:05:55;18.60;99.90
3602;DHT22;1815;50.950;6.920;2022-08-21T03:08:21;18.60;99.90
3602;DHT22;1815;50.950;6.920;2022-08-21T03:10:50;18.60;99.90
3602;DHT22;1815;50.950;6.920;2022-08-21T03:13:16;18.60;99.90
3602;DHT22;1815;50.950;6.920;2022-08-21T03:15:43;18.60;99.90
3602;DHT22;1815;50.950;6.920;2022-08-21T03:18:10;18.60;99.90
3602;DHT22;1815;50.950;6.920;2022-08-21T03:20:38;18.60;99.90
3602;DHT22;1815;50.950;6.920;2022-08-21T03:23:05;18.60;99.90
3602;DHT22;1815;50.950;6.920;2022-08-21T03:25:32;18.60;99.90
3602;DHT22;1815;50.950;6.920;2022-08-21T03:27:59;18.60;99.90
3602;DHT22;1815;50.950;6.920;2022-08-21T03:30:25;18.60;99.90
3602;DHT22;1815;50.950;6.920;2022-08-21T03:32:51;18.60;99.90
3602;DHT22;1815;50.950;6.920;2022-08-21T03:35:18;18.70;99.90
3602;DHT22;1815;50.950;6.920;2022-08-21T03:37:45;18.70;99.90
3602;DHT22;1815;50.950;6.920;2022-08-21T03:40:13;18.70;99.90
3602;DHT22;1815;50.950;6.920;2022-08-21T03:42:39;18.70;99.90
3602;DHT22;1815;50.950;6.920;2022-08-21T03:45:05;18.70;99.90
3602;DHT22;1815;50.950;6.920;2022-08-21T03:47:31;18.70;99.90
3602;DHT22;1815;50.950;6.920;2022-08-21T03:49:57;18.70;99.90
3602;DHT22;1815;50.950;6.920;2022-08-21T03:52:23;18.70;99.90
3602;DHT22;1815;50.950;6.920;2022-08-21T03:54:49;18.60;99.90
3602;DHT22;1815;50.950;6.920;2022-08-21T03:57:16;18.60;99.90
3602;DHT22;1815;50.950;6.920;2022-08-21T03:59:42;18.50;99.90
3602;DHT22;1815;50.950;6.920;2022-08-21T04:02:09;18.50;99.90
3602;DHT22;1815;50.950;6.920;2022-08-21T04:04:35;18.50;99.90
3602;DHT22;1815;50.950;6.920;2022-08-21T04:07:02;18.40;99.90
3602;DHT22;1815;50.950;6.920;2022-08-21T04:09:29;18.40;99.90
3602;DHT22;1815;50.950;6.920;2022-08-21T04:11:56;18.30;99.90
3602;DHT22;1815;50.950;6.920;2022-08-21T04:14:23;18.30;99.90
3602;DHT22;1815;50.950;6.920;2022-08-21T04:16:49;18.30;99.90
3602;DHT22;1815;50.950;6.920;2022-08-21T04:19:15;18.30;99.90
3602;DHT22;1815;50.950;6.920;2022-08-21T04:21:41;18.20;99.90
3602;DHT22;1815;50.950;6.920;2022-08-21T04:24:09;18.20;99.90
3602;DHT22;1815;50.950;6.920;2022-08-21T04:26:36;18.20;99.90
3602;DHT22;1815;50.950;6.920;2022-08-21T04:29:03;18.10;99.90
3602;DHT22;1815;50.950;6.920;2022-08-21T04:31:34;18.10;99.90
3602;DHT22;1815;50.950;6.920;2022-08-21T04:34:02;18.10;99.90
3602;DHT22;1815;50.950;6.920;2022-08-21T04:36:28;18.10;99.90
3602;DHT22;1815;50.950;6.920;2022-08-21T04:38:54;18.10;99.90
3602;DHT22;1815;50.950;6.920;2022-08-21T04:41:20;18.10;99.90
3602;DHT22;1815;50.950;6.920;2022-08-21T04:43:46;18.10;99.90
3602;DHT22;1815;50.950;6.920;2022-08-21T04:46:12;18.10;99.90
3602;DHT22;1815;50.950;6.920;2022-08-21T04:48:37;18.10;99.90
3602;DHT22;1815;50.950;6.920;2022-08-21T04:53:49;18.20;99.90
3602;DHT22;1815;50.950;6.920;2022-08-21T04:56:27;18.20;99.90
3602;DHT22;1815;50.950;6.920;2022-08-21T04:58:58;18.20;99.90
3602;DHT22;1815;50.950;6.920;2022-08-21T05:01:27;18.30;99.90
3602;DHT22;1815;50.950;6.920;2022-08-21T05:03:56;18.30;99.90
3602;DHT22;1815;50.950;6.920;2022-08-21T05:06:24;18.30;99.90
3602;DHT22;1815;50.950;6.920;2022-08-21T05:08:53;18.30;99.90
3602;DHT22;1815;50.950;6.920;2022-08-21T05:11:19;18.30;99.90
3602;DHT22;1815;50.950;6.920;2022-08-21T05:13:46;18.30;99.90
3602;DHT22;1815;50.950;6.920;2022-08-21T05:16:12;18.40;99.90
3602;DHT22;1815;50.950;6.920;2022-08-21T05:18:38;18.40;99.90
3602;DHT22;1815;50.950;6.920;2022-08-21T05:21:04;18.40;99.90
3602;DHT22;1815;50.950;6.920;2022-08-21T05:23:30;18.40;99.90
3602;DHT22;1815;50.950;6.920;2022-08-21T05:25:56;18.50;99.90
3602;DHT22;1815;50.950;6.920;2022-08-21T05:28:22;18.50;99.90
3602;DHT22;1815;50.950;6.920;2022-08-21T05:30:48;18.50;99.90
3602;DHT22;1815;50.950;6.920;2022-08-21T05:33:14;18.60;99.90
3602;DHT22;1815;50.950;6.920;2022-08-21T05:35:40;18.60;99.90
3602;DHT22;1815;50.950;6.920;2022-08-21T05:38:06;18.60;99.90
3602;DHT22;1815;50.950;6.920;2022-08-21T05:40:32;18.70;99.90
3602;DHT22;1815;50.950;6.920;2022-08-21T05:42:59;18.80;99.90
3602;DHT22;1815;50.950;6.920;2022-08-21T05:45:33;18.80;99.90
3602;DHT22;1815;50.950;6.920;2022-08-21T05:48:09;18.90;99.90
3602;DHT22;1815;50.950;6.920;2022-08-21T05:50:35;19.00;99.90
3602;DHT22;1815;50.950;6.920;2022-08-21T05:53:03;19.00;99.90
3602;DHT22;1815;50.950;6.920;2022-08-21T05:55:29;19.00;99.90
3602;DHT22;1815;50.950;6.920;2022-08-21T05:57:55;19.10;99.90
3602;DHT22;1815;50.950;6.920;2022-08-21T06:00:20;19.20;99.90
3602;DHT22;1815;50.950;6.920;2022-08-21T06:02:49;19.20;99.90
3602;DHT22;1815;50.950;6.920;2022-08-21T06:05:17;19.30;99.90
3602;DHT22;1815;50.950;6.920;2022-08-21T06:07:43;19.40;99.90
3602;DHT22;1815;50.950;6.920;2022-08-21T06:10:09;19.40;99.90
3602;DHT22;1815;50.950;6.920;2022-08-21T06:12:36;19.50;99.90
3602;DHT22;1815;50.950;6.920;2022-08-21T06:15:03;19.60;99.90
3602;DHT22;1815;50.950;6.920;2022-08-21T06:17:29;19.70;99.90
3602;DHT22;1815;50.950;6.920;2022-08-21T06:19:54;19.80;99.90
3602;DHT22;1815;50.950;6.920;2022-08-21T06:22:21;19.80;99.90
3602;DHT22;1815;50.950;6.920;2022-08-21T06:24:47;19.90;99.90
3602;DHT22;1815;50.950;6.920;2022-08-21T06:27:13;20.00;99.90
3602;DHT22;1815;50.950;6.920;2022-08-21T06:29:39;20.10;99.90
3602;DHT22;1815;50.950;6.920;2022-08-21T06:32:05;20.30;99.90
3602;DHT22;1815;50.950;6.920;2022-08-21T06:34:38;20.90;99.90
3602;DHT22;1815;50.950;6.920;2022-08-21T06:37:04;21.90;99.90
3602;DHT22;1815;50.950;6.920;2022-08-21T06:39:31;23.00;99.90
3602;DHT22;1815;50.950;6.920;2022-08-21T06:41:57;24.10;99.90
3602;DHT22;1815;50.950;6.920;2022-08-21T06:44:28;25.30;99.90
3602;DHT22;1815;50.950;6.920;2022-08-21T06:46:54;26.50;99.90
3602;DHT22;1815;50.950;6.920;2022-08-21T06:49:20;27.70;99.90
3602;DHT22;1815;50.950;6.920;2022-08-21T06:51:45;28.70;99.90
3602;DHT22;1815;50.950;6.920;2022-08-21T06:54:11;29.80;99.90
3602;DHT22;1815;50.950;6.920;2022-08-21T06:56:37;30.80;99.90
3602;DHT22;1815;50.950;6.920;2022-08-21T06:59:04;31.80;99.90
3602;DHT22;1815;50.950;6.920;2022-08-21T07:01:31;32.60;99.50
3602;DHT22;1815;50.950;6.920;2022-08-21T07:03:58;33.40;97.30
3602;DHT22;1815;50.950;6.920;2022-08-21T07:06:24;34.10;95.30
3602;DHT22;1815;50.950;6.920;2022-08-21T07:08:50;34.70;92.90
3602;DHT22;1815;50.950;6.920;2022-08-21T07:11:22;35.30;91.20
3602;DHT22;1815;50.950;6.920;2022-08-21T07:13:49;35.90;86.30
3602;DHT22;1815;50.950;6.920;2022-08-21T07:16:16;36.40;84.90
3602;DHT22;1815;50.950;6.920;2022-08-21T07:18:42;37.00;80.90
3602;DHT22;1815;50.950;6.920;2022-08-21T07:21:08;37.50;77.50
3602;DHT22;1815;50.950;6.920;2022-08-21T07:23:37;38.00;74.00
3602;DHT22;1815;50.950;6.920;2022-08-21T07:26:04;38.40;69.80
3602;DHT22;1815;50.950;6.920;2022-08-21T07:28:30;38.80;67.50
3602;DHT22;1815;50.950;6.920;2022-08-21T07:30:58;39.20;64.80
3602;DHT22;1815;50.950;6.920;2022-08-21T07:33:26;39.60;61.60
3602;DHT22;1815;50.950;6.920;2022-08-21T07:35:52;39.80;59.20
3602;DHT22;1815;50.950;6.920;2022-08-21T07:38:18;40.10;57.90
3602;DHT22;1815;50.950;6.920;2022-08-21T07:40:45;40.40;56.50
3602;DHT22;1815;50.950;6.920;2022-08-21T07:43:11;40.70;54.70
3602;DHT22;1815;50.950;6.920;2022-08-21T07:45:38;40.70;53.30
3602;DHT22;1815;50.950;6.920;2022-08-21T07:48:04;40.70;51.90
3602;DHT22;1815;50.950;6.920;2022-08-21T07:50:30;40.60;50.60
3602;DHT22;1815;50.950;6.920;2022-08-21T07:52:56;40.60;49.90
3602;DHT22;1815;50.950;6.920;2022-08-21T07:55:22;40.50;49.10
3602;DHT22;1815;50.950;6.920;2022-08-21T07:57:48;40.50;48.50
3602;DHT22;1815;50.950;6.920;2022-08-21T08:00:18;40.60;47.90
3602;DHT22;1815;50.950;6.920;2022-08-21T08:02:47;40.60;46.90
3602;DHT22;1815;50.950;6.920;2022-08-21T08:05:15;40.70;46.90
3602;DHT22;1815;50.950;6.920;2022-08-21T08:07:41;40.90;46.50
3602;DHT22;1815;50.950;6.920;2022-08-21T08:10:08;41.00;46.00
3602;DHT22;1815;50.950;6.920;2022-08-21T08:12:38;41.20;45.50
3602;DHT22;1815;50.950;6.920;2022-08-21T08:15:06;41.40;45.00
3602;DHT22;1815;50.950;6.920;2022-08-21T08:17:32;41.50;43.80
3602;DHT22;1815;50.950;6.920;2022-08-21T08:19:59;41.50;43.20
3602;DHT22;1815;50.950;6.920;2022-08-21T08:22:28;41.70;42.90
3602;DHT22;1815;50.950;6.920;2022-08-21T08:24:54;41.70;42.00
3602;DHT22;1815;50.950;6.920;2022-08-21T08:27:21;41.80;41.80
3602;DHT22;1815;50.950;6.920;2022-08-21T08:29:47;42.00;41.40
3602;DHT22;1815;50.950;6.920;2022-08-21T08:32:14;42.10;41.00
3602;DHT22;1815;50.950;6.920;2022-08-21T08:34:39;42.30;40.60
3602;DHT22;1815;50.950;6.920;2022-08-21T08:37:07;42.40;40.20
3602;DHT22;1815;50.950;6.920;2022-08-21T08:39:33;42.60;39.40
3602;DHT22;1815;50.950;6.920;2022-08-21T08:42:12;42.70;38.90
3602;DHT22;1815;50.950;6.920;2022-08-21T08:44:42;42.80;38.60
3602;DHT22;1815;50.950;6.920;2022-08-21T08:47:13;42.80;37.90
3602;DHT22;1815;50.950;6.920;2022-08-21T08:49:49;42.70;38.00
3602;DHT22;1815;50.950;6.920;2022-08-21T08:55:07;42.90;36.70
3602;DHT22;1815;50.950;6.920;2022-08-21T08:57:35;42.90;36.80
3602;DHT22;1815;50.950;6.920;2022-08-21T09:00:07;42.90;36.90
3602;DHT22;1815;50.950;6.920;2022-08-21T09:02:38;43.00;36.10
3602;DHT22;1815;50.950;6.920;2022-08-21T09:05:05;43.10;36.10
3602;DHT22;1815;50.950;6.920;2022-08-21T09:11:10;43.30;35.30
3602;DHT22;1815;50.950;6.920;2022-08-21T09:16:03;43.40;34.40
3602;DHT22;1815;50.950;6.920;2022-08-21T09:19:00;43.40;34.60
3602;DHT22;1815;50.950;6.920;2022-08-21T09:21:48;43.30;34.70
3602;DHT22;1815;50.950;6.920;2022-08-21T09:29:31;42.50;33.60
3602;DHT22;1815;50.950;6.920;2022-08-21T09:31:58;42.20;32.70
3602;DHT22;1815;50.950;6.920;2022-08-21T09:34:26;42.10;33.10
3602;DHT22;1815;50.950;6.920;2022-08-21T09:36:53;41.90;32.60
3602;DHT22;1815;50.950;6.920;2022-08-21T09:39:30;41.80;32.60
3602;DHT22;1815;50.950;6.920;2022-08-21T09:42:01;41.80;33.10
3602;DHT22;1815;50.950;6.920;2022-08-21T09:44:32;41.70;32.90
3602;DHT22;1815;50.950;6.920;2022-08-21T09:46:59;41.60;32.90
3602;DHT22;1815;50.950;6.920;2022-08-21T09:49:36;41.50;33.10
3602;DHT22;1815;50.950;6.920;2022-08-21T09:52:06;41.50;32.40
3602;DHT22;1815;50.950;6.920;2022-08-21T09:54:40;41.40;32.70
3602;DHT22;1815;50.950;6.920;2022-08-21T09:59:54;41.60;33.20
3602;DHT22;1815;50.950;6.920;2022-08-21T10:02:32;41.90;33.30
3602;DHT22;1815;50.950;6.920;2022-08-21T10:05:15;42.20;33.00
3602;DHT22;1815;50.950;6.920;2022-08-21T10:07:41;42.30;32.60
3602;DHT22;1815;50.950;6.920;2022-08-21T10:10:22;42.40;32.80
3602;DHT22;1815;50.950;6.920;2022-08-21T10:18:45;41.70;32.50
3602;DHT22;1815;50.950;6.920;2022-08-21T10:21:40;41.60;32.40
3602;DHT22;1815;50.950;6.920;2022-08-21T10:30:56;41.80;33.00
3602;DHT22;1815;50.950;6.920;2022-08-21T10:33:29;42.20;33.30
3602;DHT22;1815;50.950;6.920;2022-08-21T10:36:09;42.30;32.10
3602;DHT22;1815;50.950;6.920;2022-08-21T10:38:46;42.30;31.40
3602;DHT22;1815;50.950;6.920;2022-08-21T10:41:44;42.30;31.70
3602;DHT22;1815;50.950;6.920;2022-08-21T10:47:30;42.20;31.10
3602;DHT22;1815;50.950;6.920;2022-08-21T10:55:40;41.40;31.10
3602;DHT22;1815;50.950;6.920;2022-08-21T11:01:11;40.90;31.00
3602;DHT22;1815;50.950;6.920;2022-08-21T11:03:44;40.70;31.50
3602;DHT22;1815;50.950;6.920;2022-08-21T11:06:29;40.40;31.60
3602;DHT22;1815;50.950;6.920;2022-08-21T11:08:59;40.30;31.50
3602;DHT22;1815;50.950;6.920;2022-08-21T11:11:35;40.20;31.70
3602;DHT22;1815;50.950;6.920;2022-08-21T11:16:43;40.00;31.80
3602;DHT22;1815;50.950;6.920;2022-08-21T11:19:19;40.10;31.60
3602;DHT22;1815;50.950;6.920;2022-08-21T11:21:54;39.90;31.40
3602;DHT22;1815;50.950;6.920;2022-08-21T11:25:00;39.70;31.40
3602;DHT22;1815;50.950;6.920;2022-08-21T11:27:43;39.60;31.60
3602;DHT22;1815;50.950;6.920;2022-08-21T11:30:12;39.60;31.70
3602;DHT22;1815;50.950;6.920;2022-08-21T11:35:41;39.40;31.50
3602;DHT22;1815;50.950;6.920;2022-08-21T11:38:39;39.30;31.50
3602;DHT22;1815;50.950;6.920;2022-08-21T11:41:22;39.20;32.00
3602;DHT22;1815;50.950;6.920;2022-08-21T11:44:10;39.20;31.60
3602;DHT22;1815;50.950;6.920;2022-08-21T11:57:21;38.70;30.80
3602;DHT22;1815;50.950;6.920;2022-08-21T11:59:53;38.40;31.00
3602;DHT22;1815;50.950;6.920;2022-08-21T12:02:24;38.10;31.90
3602;DHT22;1815;50.950;6.920;2022-08-21T12:05:00;37.80;31.60
3602;DHT22;1815;50.950;6.920;2022-08-21T12:07:42;37.70;32.20
3602;DHT22;1815;50.950;6.920;2022-08-21T12:10:16;37.60;32.40
3602;DHT22;1815;50.950;6.920;2022-08-21T12:12:44;37.60;32.20
3602;DHT22;1815;50.950;6.920;2022-08-21T12:15:28;37.50;32.20
3602;DHT22;1815;50.950;6.920;2022-08-21T12:18:04;37.40;32.50
3602;DHT22;1815;50.950;6.920;2022-08-21T12:20:43;37.20;32.50
3602;DHT22;1815;50.950;6.920;2022-08-21T12:25:42;36.80;32.70
3602;DHT22;1815;50.950;6.920;2022-08-21T12:28:21;36.70;32.60
3602;DHT22;1815;50.950;6.920;2022-08-21T12:30:47;36.50;32.50
3602;DHT22;1815;50.950;6.920;2022-08-21T12:33:28;36.40;32.70
3602;DHT22;1815;50.950;6.920;2022-08-21T12:36:05;36.20;32.70
3602;DHT22;1815;50.950;6.920;2022-08-21T12:38:45;35.90;32.70
3602;DHT22;1815;50.950;6.920;2022-08-21T12:41:19;35.70;32.90
3602;DHT22;1815;50.950;6.920;2022-08-21T12:43:51;35.50;33.20
3602;DHT22;1815;50.950;6.920;2022-08-21T12:46:27;35.30;33.40
3602;DHT22;1815;50.950;6.920;2022-08-21T12:49:07;35.10;33.40
3602;DHT22;1815;50.950;6.920;2022-08-21T12:51:56;34.90;33.40
3602;DHT22;1815;50.950;6.920;2022-08-21T12:54:29;34.50;33.40
3602;DHT22;1815;50.950;6.920;2022-08-21T12:57:05;34.20;33.30
3602;DHT22;1815;50.950;6.920;2022-08-21T12:59:32;33.90;33.50
3602;DHT22;1815;50.950;6.920;2022-08-21T13:02:05;33.50;33.60
3602;DHT22;1815;50.950;6.920;2022-08-21T13:04:40;33.20;33.80
3602;DHT22;1815;50.950;6.920;2022-08-21T13:07:11;33.00;34.10
3602;DHT22;1815;50.950;6.920;2022-08-21T13:09:48;32.70;34.40
3602;DHT22;1815;50.950;6.920;2022-08-21T13:12:17;32.40;34.90
3602;DHT22;1815;50.950;6.920;2022-08-21T13:14:45;32.30;34.90
3602;DHT22;1815;50.950;6.920;2022-08-21T13:17:18;32.10;35.30
3602;DHT22;1815;50.950;6.920;2022-08-21T13:19:56;31.80;35.50
3602;DHT22;1815;50.950;6.920;2022-08-21T13:22:24;31.50;35.90
3602;DHT22;1815;50.950;6.920;2022-08-21T13:24:50;31.40;35.90
3602;DHT22;1815;50.950;6.920;2022-08-21T13:29:48;31.20;37.10
3602;DHT22;1815;50.950;6.920;2022-08-21T13:32:27;31.10;37.00
3602;DHT22;1815;50.950;6.920;2022-08-21T13:34:55;31.00;37.20
3602;DHT22;1815;50.950;6.920;2022-08-21T13:37:22;30.90;37.30
3602;DHT22;1815;50.950;6.920;2022-08-21T13:39:52;30.70;37.60
3602;DHT22;1815;50.950;6.920;2022-08-21T13:42:18;30.60;37.90
3602;DHT22;1815;50.950;6.920;2022-08-21T13:44:46;30.50;38.00
3602;DHT22;1815;50.950;6.920;2022-08-21T13:47:14;30.50;38.40
3602;DHT22;1815;50.950;6.920;2022-08-21T13:49:44;30.40;38.50
3602;DHT22;1815;50.950;6.920;2022-08-21T13:52:19;30.50;38.60
3602;DHT22;1815;50.950;6.920;2022-08-21T13:55:26;30.40;38.90
3602;DHT22;1815;50.950;6.920;2022-08-21T13:57:44;30.50;39.00
3602;DHT22;1815;50.950;6.920;2022-08-21T14:00:15;30.50;38.80
3602;DHT22;1815;50.950;6.920;2022-08-21T14:02:45;30.50;38.90
3602;DHT22;1815;50.950;6.920;2022-08-21T14:05:19;30.50;38.90
3602;DHT22;1815;50.950;6.920;2022-08-21T14:07:46;30.40;39.10
3602;DHT22;1815;50.950;6.920;2022-08-21T14:10:21;30.30;38.90
3602;DHT22;1815;50.950;6.920;2022-08-21T14:12:53;30.30;39.20
3602;DHT22;1815;50.950;6.920;2022-08-21T14:15:27;30.20;39.20
3602;DHT22;1815;50.950;6.920;2022-08-21T14:17:54;30.10;39.30
3602;DHT22;1815;50.950;6.920;2022-08-21T14:20:46;30.10;39.40
3602;DHT22;1815;50.950;6.920;2022-08-21T14:23:23;29.90;39.70
3602;DHT22;1815;50.950;6.920;2022-08-21T14:25:49;29.90;39.50
3602;DHT22;1815;50.950;6.920;2022-08-21T14:30:52;29.90;39.80
3602;DHT22;1815;50.950;6.920;2022-08-21T14:33:32;29.90;39.60
3602;DHT22;1815;50.950;6.920;2022-08-21T14:35:59;29.80;39.60
3602;DHT22;1815;50.950;6.920;2022-08-21T14:38:27;29.70;39.50
3602;DHT22;1815;50.950;6.920;2022-08-21T14:40:57;29.60;39.40
3602;DHT22;1815;50.950;6.920;2022-08-21T14:43:26;29.50;39.60
3602;DHT22;1815;50.950;6.920;2022-08-21T14:45:58;29.40;39.60
3602;DHT22;1815;50.950;6.920;2022-08-21T14:48:26;29.30;39.70
3602;DHT22;1815;50.950;6.920;2022-08-21T14:50:52;29.10;39.70
3602;DHT22;1815;50.950;6.920;2022-08-21T14:53:17;29.10;40.00
3602;DHT22;1815;50.950;6.920;2022-08-21T14:55:43;29.00;40.20
3602;DHT22;1815;50.950;6.920;2022-08-21T14:58:27;28.90;40.30
3602;DHT22;1815;50.950;6.920;2022-08-21T15:00:54;28.90;40.20
3602;DHT22;1815;50.950;6.920;2022-08-21T15:03:21;28.80;40.20
3602;DHT22;1815;50.950;6.920;2022-08-21T15:05:50;28.70;40.20
3602;DHT22;1815;50.950;6.920;2022-08-21T15:08:16;28.60;40.10
3602;DHT22;1815;50.950;6.920;2022-08-21T15:10:43;28.60;40.30
3602;DHT22;1815;50.950;6.920;2022-08-21T15:13:09;28.50;40.40
3602;DHT22;1815;50.950;6.920;2022-08-21T15:15:43;28.50;40.60
3602;DHT22;1815;50.950;6.920;2022-08-21T15:18:11;28.50;40.90
3602;DHT22;1815;50.950;6.920;2022-08-21T15:20:37;28.50;40.80
3602;DHT22;1815;50.950;6.920;2022-08-21T15:23:04;28.50;41.00
3602;DHT22;1815;50.950;6.920;2022-08-21T15:25:30;28.50;41.20
3602;DHT22;1815;50.950;6.920;2022-08-21T15:27:56;28.50;41.30
3602;DHT22;1815;50.950;6.920;2022-08-21T15:30:22;28.50;41.40
3602;DHT22;1815;50.950;6.920;2022-08-21T15:32:48;28.50;41.40
3602;DHT22;1815;50.950;6.920;2022-08-21T15:35:15;28.50;41.70
3602;DHT22;1815;50.950;6.920;2022-08-21T15:37:41;28.50;41.60
3602;DHT22;1815;50.950;6.920;2022-08-21T15:40:07;28.50;41.60
3602;DHT22;1815;50.950;6.920;2022-08-21T15:42:33;28.60;41.70
3602;DHT22;1815;50.950;6.920;2022-08-21T15:44:59;28.60;41.90
3602;DHT22;1815;50.950;6.920;2022-08-21T15:47:29;28.60;41.80
3602;DHT22;1815;50.950;6.920;2022-08-21T15:49:56;28.60;41.80
3602;DHT22;1815;50.950;6.920;2022-08-21T15:52:22;28.60;41.90
3602;DHT22;1815;50.950;6.920;2022-08-21T15:54:49;28.60;41.80
3602;DHT22;1815;50.950;6.920;2022-08-21T15:57:18;28.60;41.80
3602;DHT22;1815;50.950;6.920;2022-08-21T15:59:50;28.60;41.70
3602;DHT22;1815;50.950;6.920;2022-08-21T16:02:21;28.60;41.80
3602;DHT22;1815;50.950;6.920;2022-08-21T16:04:48;28.60;41.80
3602;DHT22;1815;50.950;6.920;2022-08-21T16:07:14;28.60;41.90
3602;DHT22;1815;50.950;6.920;2022-08-21T16:09:40;28.70;41.90
3602;DHT22;1815;50.950;6.920;2022-08-21T16:12:07;28.70;41.90
3602;DHT22;1815;50.950;6.920;2022-08-21T16:14:35;28.70;41.90
3602;DHT22;1815;50.950;6.920;2022-08-21T16:17:05;28.80;42.00
3602;DHT22;1815;50.950;6.920;2022-08-21T16:19:32;28.90;42.00
3602;DHT22;1815;50.950;6.920;2022-08-21T16:22:02;28.90;42.00
3602;DHT22;1815;50.950;6.920;2022-08-21T16:24:28;29.00;41.90
3602;DHT22;1815;50.950;6.920;2022-08-21T16:26:53;29.10;42.30
3602;DHT22;1815;50.950;6.920;2022-08-21T16:29:20;29.10;41.60
3602;DHT22;1815;50.950;6.920;2022-08-21T16:31:47;29.20;41.60
3602;DHT22;1815;50.950;6.920;2022-08-21T16:34:18;29.20;41.40
3602;DHT22;1815;50.950;6.920;2022-08-21T16:36:45;29.30;41.40
3602;DHT22;1815;50.950;6.920;2022-08-21T16:39:11;29.40;41.20
3602;DHT22;1815;50.950;6.920;2022-08-21T16:41:38;29.40;41.10
3602;DHT22;1815;50.950;6.920;2022-08-21T16:44:05;29.40;41.00
3602;DHT22;1815;50.950;6.920;2022-08-21T16:46:34;29.40;41.00
3602;DHT22;1815;50.950;6.920;2022-08-21T16:49:02;29.40;41.00
3602;DHT22;1815;50.950;6.920;2022-08-21T16:51:28;29.30;40.90
3602;DHT22;1815;50.950;6.920;2022-08-21T16:53:57;29.20;40.90
3602;DHT22;1815;50.950;6.920;2022-08-21T16:56:23;29.10;41.00
3602;DHT22;1815;50.950;6.920;2022-08-21T16:58:50;29.10;41.10
3602;DHT22;1815;50.950;6.920;2022-08-21T17:01:21;29.00;41.30
3602;DHT22;1815;50.950;6.920;2022-08-21T17:03:49;28.90;41.50
3602;DHT22;1815;50.950;6.920;2022-08-21T17:06:17;28.80;41.60
3602;DHT22;1815;50.950;6.920;2022-08-21T17:08:43;28.70;41.90
3602;DHT22;1815;50.950;6.920;2022-08-21T17:11:31;28.60;41.90
3602;DHT22;1815;50.950;6.920;2022-08-21T17:14:03;28.50;42.30
3602;DHT22;1815;50.950;6.920;2022-08-21T17:16:29;28.40;42.40
3602;DHT22;1815;50.950;6.920;2022-08-21T17:18:55;28.30;42.40
3602;DHT22;1815;50.950;6.920;2022-08-21T17:21:21;28.20;42.50
3602;DHT22;1815;50.950;6.920;2022-08-21T17:23:47;28.10;42.50